Lowestoft, United Kingdom
Current Conditions -  °F | °C
As of 1:20 PM on Friday 31 Oct 2014 (Local Time) from EGSD Reporting Station
Clear Clear  
Wind Chill: 66°   Ceiling: Unl
Heat Index: 66°   Visibility: 6mi
Dew Point: 61°   Wind: 5mph
Humidity: 83%   Direction: NA
Pressure: 30.03"   Gusts: NA
Location:  52.47°N, 1.75°E
Report Text: EGSD 311320Z VRB04KT CAVOK 19/16 Q1017
Loading
Personal Weather Stations






























Interactive Weather Map New forecast layout! Learn more

10-Day Weather Forecast

Advertisements
Track Severe Weather on mobile